sensor_id;sensor_type;location;lat;lon;timestamp;temperature;humidity
5176;DHT22;2607;50.934;6.934;2022-10-13T00:00:26;11.50;99.90
5176;DHT22;2607;50.934;6.934;2022-10-13T00:02:52;11.50;99.90
5176;DHT22;2607;50.934;6.934;2022-10-13T00:05:18;11.50;99.90
5176;DHT22;2607;50.934;6.934;2022-10-13T00:07:43;11.50;99.90
5176;DHT22;2607;50.934;6.934;2022-10-13T00:10:09;11.50;99.90
5176;DHT22;2607;50.934;6.934;2022-10-13T00:12:36;11.50;99.90
5176;DHT22;2607;50.934;6.934;2022-10-13T00:15:04;11.50;99.90
5176;DHT22;2607;50.934;6.934;2022-10-13T00:17:30;11.50;99.90
5176;DHT22;2607;50.934;6.934;2022-10-13T00:19:56;11.50;99.90
5176;DHT22;2607;50.934;6.934;2022-10-13T00:22:21;11.50;99.90
5176;DHT22;2607;50.934;6.934;2022-10-13T00:24:51;11.50;99.90
5176;DHT22;2607;50.934;6.934;2022-10-13T00:27:17;11.50;99.90
5176;DHT22;2607;50.934;6.934;2022-10-13T00:29:42;11.50;99.90
5176;DHT22;2607;50.934;6.934;2022-10-13T00:32:08;11.50;99.90
5176;DHT22;2607;50.934;6.934;2022-10-13T00:34:35;11.50;99.90
5176;DHT22;2607;50.934;6.934;2022-10-13T00:37:00;11.50;99.90
5176;DHT22;2607;50.934;6.934;2022-10-13T00:39:26;11.50;99.90
5176;DHT22;2607;50.934;6.934;2022-10-13T00:41:52;11.50;99.90
5176;DHT22;2607;50.934;6.934;2022-10-13T00:47:39;11.50;99.90
5176;DHT22;2607;50.934;6.934;2022-10-13T00:50:09;11.50;99.90
5176;DHT22;2607;50.934;6.934;2022-10-13T00:52:36;11.50;99.90
5176;DHT22;2607;50.934;6.934;2022-10-13T00:55:05;11.50;99.90
5176;DHT22;2607;50.934;6.934;2022-10-13T00:57:31;11.50;99.90
5176;DHT22;2607;50.934;6.934;2022-10-13T00:59:57;11.50;99.90
5176;DHT22;2607;50.934;6.934;2022-10-13T01:02:28;11.50;99.90
5176;DHT22;2607;50.934;6.934;2022-10-13T01:04:55;11.50;99.90
5176;DHT22;2607;50.934;6.934;2022-10-13T01:07:22;11.50;99.90
5176;DHT22;2607;50.934;6.934;2022-10-13T01:09:48;11.50;99.90
5176;DHT22;2607;50.934;6.934;2022-10-13T01:12:35;11.50;99.90
5176;DHT22;2607;50.934;6.934;2022-10-13T01:18:09;11.50;99.90
5176;DHT22;2607;50.934;6.934;2022-10-13T01:32:22;11.50;99.90
5176;DHT22;2607;50.934;6.934;2022-10-13T01:35:05;11.50;99.90
5176;DHT22;2607;50.934;6.934;2022-10-13T01:37:41;11.50;99.90
5176;DHT22;2607;50.934;6.934;2022-10-13T01:40:19;11.50;99.90
5176;DHT22;2607;50.934;6.934;2022-10-13T01:42:57;11.50;99.90
5176;DHT22;2607;50.934;6.934;2022-10-13T01:46:03;11.50;99.90
5176;DHT22;2607;50.934;6.934;2022-10-13T01:48:22;11.50;99.90
5176;DHT22;2607;50.934;6.934;2022-10-13T01:50:49;11.50;99.90
5176;DHT22;2607;50.934;6.934;2022-10-13T01:53:16;11.50;99.90
5176;DHT22;2607;50.934;6.934;2022-10-13T01:55:54;11.50;99.90
5176;DHT22;2607;50.934;6.934;2022-10-13T01:58:21;11.50;99.90
5176;DHT22;2607;50.934;6.934;2022-10-13T02:03:42;11.40;99.90
5176;DHT22;2607;50.934;6.934;2022-10-13T02:06:20;11.40;99.90
5176;DHT22;2607;50.934;6.934;2022-10-13T02:09:33;11.40;99.90
5176;DHT22;2607;50.934;6.934;2022-10-13T02:11:48;11.40;99.90
5176;DHT22;2607;50.934;6.934;2022-10-13T02:14:23;11.40;99.90
5176;DHT22;2607;50.934;6.934;2022-10-13T02:16:52;11.40;99.90
5176;DHT22;2607;50.934;6.934;2022-10-13T02:19:19;11.40;99.90
5176;DHT22;2607;50.934;6.934;2022-10-13T02:21:45;11.40;99.90
5176;DHT22;2607;50.934;6.934;2022-10-13T02:24:11;11.40;99.90
5176;DHT22;2607;50.934;6.934;2022-10-13T02:26:38;11.40;99.90
5176;DHT22;2607;50.934;6.934;2022-10-13T02:29:10;11.40;99.90
5176;DHT22;2607;50.934;6.934;2022-10-13T02:31:37;11.40;99.90
5176;DHT22;2607;50.934;6.934;2022-10-13T02:34:03;11.40;99.90
5176;DHT22;2607;50.934;6.934;2022-10-13T02:36:29;11.40;99.90
5176;DHT22;2607;50.934;6.934;2022-10-13T02:38:55;11.40;99.90
5176;DHT22;2607;50.934;6.934;2022-10-13T02:41:20;11.50;99.90
5176;DHT22;2607;50.934;6.934;2022-10-13T02:43:46;11.50;99.90
5176;DHT22;2607;50.934;6.934;2022-10-13T02:46:11;11.50;99.90
5176;DHT22;2607;50.934;6.934;2022-10-13T02:48:37;11.50;99.90
5176;DHT22;2607;50.934;6.934;2022-10-13T02:51:03;11.50;99.90
5176;DHT22;2607;50.934;6.934;2022-10-13T02:53:28;11.50;99.90
5176;DHT22;2607;50.934;6.934;2022-10-13T02:55:54;11.50;99.90
5176;DHT22;2607;50.934;6.934;2022-10-13T02:58:20;11.50;99.90
5176;DHT22;2607;50.934;6.934;2022-10-13T03:00:45;11.60;99.90
5176;DHT22;2607;50.934;6.934;2022-10-13T03:03:11;11.60;99.90
5176;DHT22;2607;50.934;6.934;2022-10-13T03:05:37;11.60;99.90
5176;DHT22;2607;50.934;6.934;2022-10-13T03:08:02;11.50;99.90
5176;DHT22;2607;50.934;6.934;2022-10-13T03:10:28;11.60;99.90
5176;DHT22;2607;50.934;6.934;2022-10-13T03:12:55;11.50;99.90
5176;DHT22;2607;50.934;6.934;2022-10-13T03:15:21;11.60;99.90
5176;DHT22;2607;50.934;6.934;2022-10-13T03:17:47;11.60;99.90
5176;DHT22;2607;50.934;6.934;2022-10-13T03:20:12;11.50;99.90
5176;DHT22;2607;50.934;6.934;2022-10-13T03:22:38;11.50;99.90
5176;DHT22;2607;50.934;6.934;2022-10-13T03:25:04;11.50;99.90
5176;DHT22;2607;50.934;6.934;2022-10-13T03:27:29;11.50;99.90
5176;DHT22;2607;50.934;6.934;2022-10-13T03:29:55;11.60;99.90
5176;DHT22;2607;50.934;6.934;2022-10-13T03:32:20;11.50;99.90
5176;DHT22;2607;50.934;6.934;2022-10-13T03:34:46;11.50;99.90
5176;DHT22;2607;50.934;6.934;2022-10-13T03:37:11;11.50;99.90
5176;DHT22;2607;50.934;6.934;2022-10-13T03:39:37;11.50;99.90
5176;DHT22;2607;50.934;6.934;2022-10-13T03:42:03;11.50;99.90
5176;DHT22;2607;50.934;6.934;2022-10-13T03:44:28;11.50;99.90
5176;DHT22;2607;50.934;6.934;2022-10-13T03:46:54;11.50;99.90
5176;DHT22;2607;50.934;6.934;2022-10-13T03:49:19;11.50;99.90
5176;DHT22;2607;50.934;6.934;2022-10-13T03:51:45;11.50;99.90
5176;DHT22;2607;50.934;6.934;2022-10-13T03:54:12;11.50;99.90
5176;DHT22;2607;50.934;6.934;2022-10-13T03:56:38;11.50;99.90
5176;DHT22;2607;50.934;6.934;2022-10-13T03:59:04;11.50;99.90
5176;DHT22;2607;50.934;6.934;2022-10-13T04:01:31;11.50;99.90
5176;DHT22;2607;50.934;6.934;2022-10-13T04:03:58;11.50;99.90
5176;DHT22;2607;50.934;6.934;2022-10-13T04:06:25;11.50;99.90
5176;DHT22;2607;50.934;6.934;2022-10-13T04:08:51;11.50;99.90
5176;DHT22;2607;50.934;6.934;2022-10-13T04:11:17;11.50;99.90
5176;DHT22;2607;50.934;6.934;2022-10-13T04:13:44;11.60;99.90
5176;DHT22;2607;50.934;6.934;2022-10-13T04:16:16;11.60;99.90
5176;DHT22;2607;50.934;6.934;2022-10-13T04:18:42;11.60;99.90
5176;DHT22;2607;50.934;6.934;2022-10-13T04:21:09;11.60;99.90
5176;DHT22;2607;50.934;6.934;2022-10-13T04:23:35;11.60;99.90
5176;DHT22;2607;50.934;6.934;2022-10-13T04:26:02;11.60;99.90
5176;DHT22;2607;50.934;6.934;2022-10-13T04:28:27;11.60;99.90
5176;DHT22;2607;50.934;6.934;2022-10-13T04:30:53;11.60;99.90
5176;DHT22;2607;50.934;6.934;2022-10-13T04:33:19;11.60;99.90
5176;DHT22;2607;50.934;6.934;2022-10-13T04:35:45;11.60;99.90
5176;DHT22;2607;50.934;6.934;2022-10-13T04:38:10;11.60;99.90
5176;DHT22;2607;50.934;6.934;2022-10-13T04:40:36;11.60;99.90
5176;DHT22;2607;50.934;6.934;2022-10-13T04:43:02;11.60;99.90
5176;DHT22;2607;50.934;6.934;2022-10-13T04:45:28;11.60;99.90
5176;DHT22;2607;50.934;6.934;2022-10-13T04:47:54;11.60;99.90
5176;DHT22;2607;50.934;6.934;2022-10-13T04:50:19;11.60;99.90
5176;DHT22;2607;50.934;6.934;2022-10-13T04:52:45;11.60;99.90
5176;DHT22;2607;50.934;6.934;2022-10-13T04:55:10;11.60;99.90
5176;DHT22;2607;50.934;6.934;2022-10-13T04:57:36;11.60;99.90
5176;DHT22;2607;50.934;6.934;2022-10-13T05:00:03;11.60;99.90
5176;DHT22;2607;50.934;6.934;2022-10-13T05:02:28;11.60;99.90
5176;DHT22;2607;50.934;6.934;2022-10-13T05:04:54;11.60;99.90
5176;DHT22;2607;50.934;6.934;2022-10-13T05:07:19;11.60;99.90
5176;DHT22;2607;50.934;6.934;2022-10-13T05:09:45;11.60;99.90
5176;DHT22;2607;50.934;6.934;2022-10-13T05:12:10;11.60;99.90
5176;DHT22;2607;50.934;6.934;2022-10-13T05:14:36;11.60;99.90
5176;DHT22;2607;50.934;6.934;2022-10-13T05:17:02;11.60;99.90
5176;DHT22;2607;50.934;6.934;2022-10-13T05:19:27;11.60;99.90
5176;DHT22;2607;50.934;6.934;2022-10-13T05:21:53;11.60;99.90
5176;DHT22;2607;50.934;6.934;2022-10-13T05:24:18;11.60;99.90
5176;DHT22;2607;50.934;6.934;2022-10-13T05:26:55;11.60;99.90
5176;DHT22;2607;50.934;6.934;2022-10-13T05:29:21;11.60;99.90
5176;DHT22;2607;50.934;6.934;2022-10-13T05:31:46;11.60;99.90
5176;DHT22;2607;50.934;6.934;2022-10-13T05:34:12;11.60;99.90
5176;DHT22;2607;50.934;6.934;2022-10-13T05:36:38;11.60;99.90
5176;DHT22;2607;50.934;6.934;2022-10-13T05:39:05;11.60;99.90
5176;DHT22;2607;50.934;6.934;2022-10-13T05:41:32;11.60;99.90
5176;DHT22;2607;50.934;6.934;2022-10-13T05:44:03;11.60;99.90
5176;DHT22;2607;50.934;6.934;2022-10-13T05:46:30;11.60;99.90
5176;DHT22;2607;50.934;6.934;2022-10-13T05:48:56;11.60;99.90
5176;DHT22;2607;50.934;6.934;2022-10-13T05:51:38;11.60;99.90
5176;DHT22;2607;50.934;6.934;2022-10-13T05:54:18;11.60;99.90
5176;DHT22;2607;50.934;6.934;2022-10-13T05:56:51;11.60;99.90
5176;DHT22;2607;50.934;6.934;2022-10-13T05:59:19;11.60;99.90
5176;DHT22;2607;50.934;6.934;2022-10-13T06:01:46;11.60;99.90
5176;DHT22;2607;50.934;6.934;2022-10-13T06:04:16;11.60;99.90
5176;DHT22;2607;50.934;6.934;2022-10-13T06:06:44;11.60;99.90
5176;DHT22;2607;50.934;6.934;2022-10-13T06:09:09;11.60;99.90
5176;DHT22;2607;50.934;6.934;2022-10-13T06:11:35;11.60;99.90
5176;DHT22;2607;50.934;6.934;2022-10-13T06:14:01;11.60;99.90
5176;DHT22;2607;50.934;6.934;2022-10-13T06:16:26;11.60;99.90
5176;DHT22;2607;50.934;6.934;2022-10-13T06:18:52;11.60;99.90
5176;DHT22;2607;50.934;6.934;2022-10-13T06:21:17;11.60;99.90
5176;DHT22;2607;50.934;6.934;2022-10-13T06:23:43;11.60;99.90
5176;DHT22;2607;50.934;6.934;2022-10-13T06:26:09;11.60;99.90
5176;DHT22;2607;50.934;6.934;2022-10-13T06:28:34;11.70;99.90
5176;DHT22;2607;50.934;6.934;2022-10-13T06:31:03;11.70;99.90
5176;DHT22;2607;50.934;6.934;2022-10-13T06:33:28;11.70;99.90
5176;DHT22;2607;50.934;6.934;2022-10-13T06:35:54;11.70;99.90
5176;DHT22;2607;50.934;6.934;2022-10-13T06:38:19;11.70;99.90
5176;DHT22;2607;50.934;6.934;2022-10-13T06:40:45;11.70;99.90
5176;DHT22;2607;50.934;6.934;2022-10-13T06:43:10;11.70;99.90
5176;DHT22;2607;50.934;6.934;2022-10-13T06:45:36;11.70;99.90
5176;DHT22;2607;50.934;6.934;2022-10-13T06:48:02;11.70;99.90
5176;DHT22;2607;50.934;6.934;2022-10-13T06:50:27;11.70;99.90
5176;DHT22;2607;50.934;6.934;2022-10-13T06:52:54;11.70;99.90
5176;DHT22;2607;50.934;6.934;2022-10-13T06:55:21;11.80;99.90
5176;DHT22;2607;50.934;6.934;2022-10-13T06:57:46;11.70;99.90
5176;DHT22;2607;50.934;6.934;2022-10-13T07:00:12;11.80;99.90
5176;DHT22;2607;50.934;6.934;2022-10-13T07:02:37;11.80;99.90
5176;DHT22;2607;50.934;6.934;2022-10-13T07:05:03;11.80;99.90
5176;DHT22;2607;50.934;6.934;2022-10-13T07:07:29;11.80;99.90
5176;DHT22;2607;50.934;6.934;2022-10-13T07:09:54;11.90;99.90
5176;DHT22;2607;50.934;6.934;2022-10-13T07:12:20;11.90;99.90
5176;DHT22;2607;50.934;6.934;2022-10-13T07:14:46;12.00;99.90
5176;DHT22;2607;50.934;6.934;2022-10-13T07:17:12;12.00;99.90
5176;DHT22;2607;50.934;6.934;2022-10-13T07:19:38;12.00;99.90
5176;DHT22;2607;50.934;6.934;2022-10-13T07:22:03;12.10;99.90
5176;DHT22;2607;50.934;6.934;2022-10-13T07:24:29;12.10;99.90
5176;DHT22;2607;50.934;6.934;2022-10-13T07:26:54;12.10;99.90
5176;DHT22;2607;50.934;6.934;2022-10-13T07:29:20;12.20;99.90
5176;DHT22;2607;50.934;6.934;2022-10-13T07:31:45;12.20;99.90
5176;DHT22;2607;50.934;6.934;2022-10-13T07:34:12;12.20;99.90
5176;DHT22;2607;50.934;6.934;2022-10-13T07:36:38;12.30;99.90
5176;DHT22;2607;50.934;6.934;2022-10-13T07:39:09;12.30;99.90
5176;DHT22;2607;50.934;6.934;2022-10-13T07:41:35;12.40;99.90
5176;DHT22;2607;50.934;6.934;2022-10-13T07:44:01;12.40;99.90
5176;DHT22;2607;50.934;6.934;2022-10-13T07:46:27;12.40;99.90
5176;DHT22;2607;50.934;6.934;2022-10-13T07:48:53;12.50;99.90
5176;DHT22;2607;50.934;6.934;2022-10-13T07:51:19;12.50;99.90
5176;DHT22;2607;50.934;6.934;2022-10-13T07:53:46;12.60;99.90
5176;DHT22;2607;50.934;6.934;2022-10-13T07:56:13;12.60;99.90
5176;DHT22;2607;50.934;6.934;2022-10-13T07:58:41;12.60;99.90
5176;DHT22;2607;50.934;6.934;2022-10-13T08:01:07;12.70;99.90
5176;DHT22;2607;50.934;6.934;2022-10-13T08:03:33;12.70;99.90
5176;DHT22;2607;50.934;6.934;2022-10-13T08:06:02;12.70;99.90
5176;DHT22;2607;50.934;6.934;2022-10-13T08:08:29;12.80;99.90
5176;DHT22;2607;50.934;6.934;2022-10-13T08:11:10;12.80;99.90
5176;DHT22;2607;50.934;6.934;2022-10-13T08:13:35;12.90;99.90
5176;DHT22;2607;50.934;6.934;2022-10-13T08:16:01;13.00;99.90
5176;DHT22;2607;50.934;6.934;2022-10-13T08:18:28;13.00;99.90
5176;DHT22;2607;50.934;6.934;2022-10-13T08:20:54;13.10;99.90
5176;DHT22;2607;50.934;6.934;2022-10-13T08:23:19;13.10;99.90
5176;DHT22;2607;50.934;6.934;2022-10-13T08:25:45;13.20;99.90
5176;DHT22;2607;50.934;6.934;2022-10-13T08:28:21;13.20;99.90
5176;DHT22;2607;50.934;6.934;2022-10-13T08:30:48;13.30;99.90
5176;DHT22;2607;50.934;6.934;2022-10-13T08:33:14;13.40;99.90
5176;DHT22;2607;50.934;6.934;2022-10-13T08:35:40;13.50;99.90
5176;DHT22;2607;50.934;6.934;2022-10-13T08:38:07;13.60;99.90
5176;DHT22;2607;50.934;6.934;2022-10-13T08:40:32;13.60;99.90
5176;DHT22;2607;50.934;6.934;2022-10-13T08:42:58;13.70;99.90
5176;DHT22;2607;50.934;6.934;2022-10-13T08:45:33;13.70;99.90
5176;DHT22;2607;50.934;6.934;2022-10-13T08:48:06;13.70;99.90
5176;DHT22;2607;50.934;6.934;2022-10-13T08:50:36;13.70;99.90
5176;DHT22;2607;50.934;6.934;2022-10-13T08:53:27;13.70;99.90
5176;DHT22;2607;50.934;6.934;2022-10-13T08:55:58;13.70;99.90
5176;DHT22;2607;50.934;6.934;2022-10-13T08:58:29;13.70;99.90
5176;DHT22;2607;50.934;6.934;2022-10-13T09:01:20;13.70;99.90
5176;DHT22;2607;50.934;6.934;2022-10-13T09:03:49;13.70;99.90
5176;DHT22;2607;50.934;6.934;2022-10-13T09:06:38;13.80;99.90
5176;DHT22;2607;50.934;6.934;2022-10-13T09:09:07;13.80;99.90
5176;DHT22;2607;50.934;6.934;2022-10-13T09:11:39;13.80;99.90
5176;DHT22;2607;50.934;6.934;2022-10-13T09:14:13;13.90;99.90
5176;DHT22;2607;50.934;6.934;2022-10-13T09:16:43;13.90;99.90
5176;DHT22;2607;50.934;6.934;2022-10-13T09:21:50;14.10;99.90
5176;DHT22;2607;50.934;6.934;2022-10-13T09:24:18;14.20;99.90
5176;DHT22;2607;50.934;6.934;2022-10-13T09:26:47;14.20;99.90
5176;DHT22;2607;50.934;6.934;2022-10-13T09:29:24;14.30;99.90
5176;DHT22;2607;50.934;6.934;2022-10-13T09:31:50;14.30;99.90
5176;DHT22;2607;50.934;6.934;2022-10-13T09:39:25;14.30;99.90
5176;DHT22;2607;50.934;6.934;2022-10-13T09:41:51;14.30;99.90
5176;DHT22;2607;50.934;6.934;2022-10-13T09:44:17;14.40;99.90
5176;DHT22;2607;50.934;6.934;2022-10-13T09:46:52;14.40;99.90
5176;DHT22;2607;50.934;6.934;2022-10-13T09:49:41;14.40;99.90
5176;DHT22;2607;50.934;6.934;2022-10-13T09:52:17;14.40;99.90
5176;DHT22;2607;50.934;6.934;2022-10-13T10:00:16;14.50;99.90
5176;DHT22;2607;50.934;6.934;2022-10-13T10:02:59;14.60;99.90
5176;DHT22;2607;50.934;6.934;2022-10-13T10:05:39;14.60;99.90
5176;DHT22;2607;50.934;6.934;2022-10-13T10:08:15;14.70;99.90
5176;DHT22;2607;50.934;6.934;2022-10-13T10:10:42;14.80;99.90
5176;DHT22;2607;50.934;6.934;2022-10-13T10:13:10;14.90;99.90
5176;DHT22;2607;50.934;6.934;2022-10-13T10:24:26;15.20;99.90
5176;DHT22;2607;50.934;6.934;2022-10-13T10:27:03;15.30;99.90
5176;DHT22;2607;50.934;6.934;2022-10-13T10:34:37;15.70;99.90
5176;DHT22;2607;50.934;6.934;2022-10-13T10:42:58;15.90;99.90
5176;DHT22;2607;50.934;6.934;2022-10-13T10:45:33;16.10;99.90
5176;DHT22;2607;50.934;6.934;2022-10-13T10:48:06;16.20;99.90
5176;DHT22;2607;50.934;6.934;2022-10-13T10:50:36;16.30;99.90
5176;DHT22;2607;50.934;6.934;2022-10-13T10:53:26;16.40;99.90
5176;DHT22;2607;50.934;6.934;2022-10-13T10:55:59;16.40;99.90
5176;DHT22;2607;50.934;6.934;2022-10-13T10:58:45;16.40;99.90
5176;DHT22;2607;50.934;6.934;2022-10-13T11:01:32;16.40;99.90
5176;DHT22;2607;50.934;6.934;2022-10-13T11:06:41;16.50;99.90
5176;DHT22;2607;50.934;6.934;2022-10-13T11:09:10;16.50;99.90
5176;DHT22;2607;50.934;6.934;2022-10-13T11:11:40;16.60;99.90
5176;DHT22;2607;50.934;6.934;2022-10-13T11:16:39;16.70;99.90
5176;DHT22;2607;50.934;6.934;2022-10-13T11:19:28;16.70;99.90
5176;DHT22;2607;50.934;6.934;2022-10-13T11:32:42;16.80;99.90
5176;DHT22;2607;50.934;6.934;2022-10-13T11:37:43;16.80;99.90
5176;DHT22;2607;50.934;6.934;2022-10-13T11:48:48;16.80;99.90
5176;DHT22;2607;50.934;6.934;2022-10-13T11:54:20;16.80;99.90
5176;DHT22;2607;50.934;6.934;2022-10-13T11:56:50;16.90;99.90
5176;DHT22;2607;50.934;6.934;2022-10-13T12:02:18;16.80;99.90
5176;DHT22;2607;50.934;6.934;2022-10-13T12:07:42;16.60;99.90
5176;DHT22;2607;50.934;6.934;2022-10-13T12:10:17;16.60;99.90
5176;DHT22;2607;50.934;6.934;2022-10-13T12:12:48;16.60;99.90
5176;DHT22;2607;50.934;6.934;2022-10-13T12:15:37;16.60;99.90
5176;DHT22;2607;50.934;6.934;2022-10-13T12:18:22;16.60;99.90
5176;DHT22;2607;50.934;6.934;2022-10-13T12:20:53;16.60;99.90
5176;DHT22;2607;50.934;6.934;2022-10-13T12:23:19;16.60;99.90
5176;DHT22;2607;50.934;6.934;2022-10-13T12:25:49;16.60;99.90
5176;DHT22;2607;50.934;6.934;2022-10-13T12:28:21;16.60;99.90
5176;DHT22;2607;50.934;6.934;2022-10-13T12:30:52;16.60;99.90
5176;DHT22;2607;50.934;6.934;2022-10-13T12:33:25;16.60;99.90
5176;DHT22;2607;50.934;6.934;2022-10-13T12:35:51;16.60;99.90
5176;DHT22;2607;50.934;6.934;2022-10-13T12:38:18;16.60;99.90
5176;DHT22;2607;50.934;6.934;2022-10-13T12:40:46;16.60;99.90
5176;DHT22;2607;50.934;6.934;2022-10-13T12:43:19;16.60;99.90
5176;DHT22;2607;50.934;6.934;2022-10-13T12:45:46;16.50;99.90
5176;DHT22;2607;50.934;6.934;2022-10-13T12:48:32;16.50;99.90
5176;DHT22;2607;50.934;6.934;2022-10-13T12:51:27;16.50;99.90
5176;DHT22;2607;50.934;6.934;2022-10-13T12:53:53;16.50;99.90
5176;DHT22;2607;50.934;6.934;2022-10-13T12:56:30;16.50;99.90
5176;DHT22;2607;50.934;6.934;2022-10-13T12:58:57;16.50;99.90
5176;DHT22;2607;50.934;6.934;2022-10-13T13:03:59;16.50;99.90
5176;DHT22;2607;50.934;6.934;2022-10-13T13:06:31;16.50;99.90
5176;DHT22;2607;50.934;6.934;2022-10-13T13:11:40;16.40;99.90
5176;DHT22;2607;50.934;6.934;2022-10-13T13:14:45;16.40;99.90
5176;DHT22;2607;50.934;6.934;2022-10-13T13:19:48;16.30;99.90
5176;DHT22;2607;50.934;6.934;2022-10-13T13:22:14;16.30;99.90
5176;DHT22;2607;50.934;6.934;2022-10-13T13:24:40;16.30;99.90
5176;DHT22;2607;50.934;6.934;2022-10-13T13:27:37;16.30;99.90
5176;DHT22;2607;50.934;6.934;2022-10-13T13:30:05;16.30;99.90
5176;DHT22;2607;50.934;6.934;2022-10-13T13:32:34;16.30;99.90
5176;DHT22;2607;50.934;6.934;2022-10-13T13:35:00;16.30;99.90
5176;DHT22;2607;50.934;6.934;2022-10-13T13:37:33;16.30;99.90
5176;DHT22;2607;50.934;6.934;2022-10-13T13:39:59;16.30;99.90
5176;DHT22;2607;50.934;6.934;2022-10-13T13:42:28;16.20;99.90
5176;DHT22;2607;50.934;6.934;2022-10-13T13:44:54;16.20;99.90
5176;DHT22;2607;50.934;6.934;2022-10-13T13:47:22;16.20;99.90
5176;DHT22;2607;50.934;6.934;2022-10-13T13:49:50;16.20;99.90
5176;DHT22;2607;50.934;6.934;2022-10-13T13:52:17;16.10;99.90
5176;DHT22;2607;50.934;6.934;2022-10-13T13:54:43;16.10;99.90
5176;DHT22;2607;50.934;6.934;2022-10-13T13:57:10;16.10;99.90
5176;DHT22;2607;50.934;6.934;2022-10-13T13:59:36;16.10;99.90
5176;DHT22;2607;50.934;6.934;2022-10-13T14:02:02;16.10;99.90
5176;DHT22;2607;50.934;6.934;2022-10-13T14:04:28;16.10;99.90
5176;DHT22;2607;50.934;6.934;2022-10-13T14:06:54;16.10;99.90
5176;DHT22;2607;50.934;6.934;2022-10-13T14:09:19;16.10;99.90
5176;DHT22;2607;50.934;6.934;2022-10-13T14:11:45;16.00;99.90
5176;DHT22;2607;50.934;6.934;2022-10-13T14:14:10;16.00;99.90
5176;DHT22;2607;50.934;6.934;2022-10-13T14:16:36;16.00;99.90
5176;DHT22;2607;50.934;6.934;2022-10-13T14:19:02;15.90;99.90
5176;DHT22;2607;50.934;6.934;2022-10-13T14:21:27;15.90;99.90
5176;DHT22;2607;50.934;6.934;2022-10-13T14:23:54;15.90;99.90
5176;DHT22;2607;50.934;6.934;2022-10-13T14:26:19;15.80;99.90
5176;DHT22;2607;50.934;6.934;2022-10-13T14:28:45;15.80;99.90
5176;DHT22;2607;50.934;6.934;2022-10-13T14:31:11;15.80;99.90
5176;DHT22;2607;50.934;6.934;2022-10-13T14:33:37;15.80;99.90
5176;DHT22;2607;50.934;6.934;2022-10-13T14:36:04;15.70;99.90
5176;DHT22;2607;50.934;6.934;2022-10-13T14:38:32;15.70;99.90
5176;DHT22;2607;50.934;6.934;2022-10-13T14:41:04;15.70;99.90
5176;DHT22;2607;50.934;6.934;2022-10-13T14:43:30;15.70;99.90
5176;DHT22;2607;50.934;6.934;2022-10-13T14:46:00;15.70;99.90
5176;DHT22;2607;50.934;6.934;2022-10-13T14:48:26;15.60;99.90
5176;DHT22;2607;50.934;6.934;2022-10-13T14:50:53;15.60;99.90
5176;DHT22;2607;50.934;6.934;2022-10-13T14:53:19;15.60;99.90
5176;DHT22;2607;50.934;6.934;2022-10-13T14:55:45;15.60;99.90
5176;DHT22;2607;50.934;6.934;2022-10-13T14:58:11;15.50;99.90
5176;DHT22;2607;50.934;6.934;2022-10-13T15:00:37;15.50;99.90
5176;DHT22;2607;50.934;6.934;2022-10-13T15:03:03;15.50;99.90
5176;DHT22;2607;50.934;6.934;2022-10-13T15:05:29;15.50;99.90
5176;DHT22;2607;50.934;6.934;2022-10-13T15:07:55;15.50;99.90
5176;DHT22;2607;50.934;6.934;2022-10-13T15:10:20;15.50;99.90
5176;DHT22;2607;50.934;6.934;2022-10-13T15:12:46;15.50;99.90
5176;DHT22;2607;50.934;6.934;2022-10-13T15:15:11;15.50;99.90
5176;DHT22;2607;50.934;6.934;2022-10-13T15:17:37;15.60;99.90
5176;DHT22;2607;50.934;6.934;2022-10-13T15:20:04;15.60;99.90
5176;DHT22;2607;50.934;6.934;2022-10-13T15:22:30;15.60;99.90
5176;DHT22;2607;50.934;6.934;2022-10-13T15:24:55;15.50;99.90
5176;DHT22;2607;50.934;6.934;2022-10-13T15:27:21;15.50;99.90
5176;DHT22;2607;50.934;6.934;2022-10-13T15:29:47;15.50;99.90
5176;DHT22;2607;50.934;6.934;2022-10-13T15:32:17;15.50;99.90
5176;DHT22;2607;50.934;6.934;2022-10-13T15:34:43;15.50;99.90
5176;DHT22;2607;50.934;6.934;2022-10-13T15:37:09;15.40;99.90
5176;DHT22;2607;50.934;6.934;2022-10-13T15:39:35;15.40;99.90
5176;DHT22;2607;50.934;6.934;2022-10-13T15:42:01;15.40;99.90
5176;DHT22;2607;50.934;6.934;2022-10-13T15:44:27;15.30;99.90
5176;DHT22;2607;50.934;6.934;2022-10-13T15:46:52;15.30;99.90
5176;DHT22;2607;50.934;6.934;2022-10-13T15:49:21;15.30;99.90
5176;DHT22;2607;50.934;6.934;2022-10-13T15:51:47;15.30;99.90
5176;DHT22;2607;50.934;6.934;2022-10-13T15:54:13;15.20;99.90
5176;DHT22;2607;50.934;6.934;2022-10-13T15:56:38;15.20;99.90
5176;DHT22;2607;50.934;6.934;2022-10-13T15:59:04;15.20;99.90
5176;DHT22;2607;50.934;6.934;2022-10-13T16:01:29;15.20;99.90
5176;DHT22;2607;50.934;6.934;2022-10-13T16:03:55;15.10;99.90
5176;DHT22;2607;50.934;6.934;2022-10-13T16:06:21;15.10;99.90
5176;DHT22;2607;50.934;6.934;2022-10-13T16:08:47;15.10;99.90
5176;DHT22;2607;50.934;6.934;2022-10-13T16:11:15;15.10;99.90
5176;DHT22;2607;50.934;6.934;2022-10-13T16:13:44;15.10;99.90
5176;DHT22;2607;50.934;6.934;2022-10-13T16:16:10;15.10;99.90
5176;DHT22;2607;50.934;6.934;2022-10-13T16:18:37;15.10;99.90
5176;DHT22;2607;50.934;6.934;2022-10-13T16:21:14;15.10;99.90
5176;DHT22;2607;50.934;6.934;2022-10-13T16:23:40;15.10;99.90
5176;DHT22;2607;50.934;6.934;2022-10-13T16:26:08;15.00;99.90
5176;DHT22;2607;50.934;6.934;2022-10-13T16:28:35;15.00;99.90
5176;DHT22;2607;50.934;6.934;2022-10-13T16:31:05;15.00;99.90
5176;DHT22;2607;50.934;6.934;2022-10-13T16:33:35;15.00;99.90
5176;DHT22;2607;50.934;6.934;2022-10-13T16:36:05;15.00;99.90
5176;DHT22;2607;50.934;6.934;2022-10-13T16:38:32;15.00;99.90
5176;DHT22;2607;50.934;6.934;2022-10-13T16:40:57;15.00;99.90
5176;DHT22;2607;50.934;6.934;2022-10-13T16:43:23;15.00;99.90
5176;DHT22;2607;50.934;6.934;2022-10-13T16:45:59;15.00;99.90
5176;DHT22;2607;50.934;6.934;2022-10-13T16:48:26;14.90;99.90
5176;DHT22;2607;50.934;6.934;2022-10-13T16:50:52;14.90;99.90
5176;DHT22;2607;50.934;6.934;2022-10-13T16:53:18;14.90;99.90
5176;DHT22;2607;50.934;6.934;2022-10-13T16:55:43;14.90;99.90
5176;DHT22;2607;50.934;6.934;2022-10-13T16:58:09;14.90;99.90
5176;DHT22;2607;50.934;6.934;2022-10-13T17:00:36;14.90;99.90
5176;DHT22;2607;50.934;6.934;2022-10-13T17:03:01;14.90;99.90
5176;DHT22;2607;50.934;6.934;2022-10-13T17:05:27;14.90;99.90
5176;DHT22;2607;50.934;6.934;2022-10-13T17:07:53;14.90;99.90
5176;DHT22;2607;50.934;6.934;2022-10-13T17:10:18;14.90;99.90
5176;DHT22;2607;50.934;6.934;2022-10-13T17:12:44;14.90;99.90
5176;DHT22;2607;50.934;6.934;2022-10-13T17:15:10;14.80;99.90
5176;DHT22;2607;50.934;6.934;2022-10-13T17:17:35;14.80;99.90
5176;DHT22;2607;50.934;6.934;2022-10-13T17:20:01;14.80;99.90
5176;DHT22;2607;50.934;6.934;2022-10-13T17:22:27;14.80;99.90
5176;DHT22;2607;50.934;6.934;2022-10-13T17:24:52;14.90;99.90
5176;DHT22;2607;50.934;6.934;2022-10-13T17:27:18;14.80;99.90
5176;DHT22;2607;50.934;6.934;2022-10-13T17:29:44;14.90;99.90
5176;DHT22;2607;50.934;6.934;2022-10-13T17:32:09;14.90;99.90
5176;DHT22;2607;50.934;6.934;2022-10-13T17:34:35;14.90;99.90
5176;DHT22;2607;50.934;6.934;2022-10-13T17:37:02;14.80;99.90
5176;DHT22;2607;50.934;6.934;2022-10-13T17:39:27;14.80;99.90
5176;DHT22;2607;50.934;6.934;2022-10-13T17:41:53;14.90;99.90
5176;DHT22;2607;50.934;6.934;2022-10-13T17:44:19;14.90;99.90
5176;DHT22;2607;50.934;6.934;2022-10-13T17:46:46;14.90;99.90